sensor_id;sensor_type;location;lat;lon;timestamp;pressure;altitude;pressure_sealevel;temperature
71205;BMP180;58935;54.498;18.544;2023-06-10T00:01:49;101043.60;;;15.80
71205;BMP180;58935;54.498;18.544;2023-06-10T00:04:17;101047.40;;;15.76
71205;BMP180;58935;54.498;18.544;2023-06-10T00:06:45;101046.60;;;15.70
71205;BMP180;58935;54.498;18.544;2023-06-10T00:09:15;101045.80;;;15.70
71205;BMP180;58935;54.498;18.544;2023-06-10T00:11:41;101044.60;;;15.70
71205;BMP180;58935;54.498;18.544;2023-06-10T00:14:10;101051.20;;;15.70
71205;BMP180;58935;54.498;18.544;2023-06-10T00:16:36;101056.60;;;15.70
71205;BMP180;58935;54.498;18.544;2023-06-10T00:19:03;101052.80;;;15.70
71205;BMP180;58935;54.498;18.544;2023-06-10T00:21:33;101057.20;;;15.66
71205;BMP180;58935;54.498;18.544;2023-06-10T00:24:04;101057.00;;;15.60
71205;BMP180;58935;54.498;18.544;2023-06-10T00:26:31;101062.20;;;15.60
71205;BMP180;58935;54.498;18.544;2023-06-10T00:28:57;101067.20;;;15.60
71205;BMP180;58935;54.498;18.544;2023-06-10T00:31:23;101075.60;;;15.60
71205;BMP180;58935;54.498;18.544;2023-06-10T00:33:48;101077.60;;;15.60
71205;BMP180;58935;54.498;18.544;2023-06-10T00:36:14;101075.80;;;15.56
71205;BMP180;58935;54.498;18.544;2023-06-10T00:38:40;101080.40;;;15.58
71205;BMP180;58935;54.498;18.544;2023-06-10T00:41:06;101076.00;;;15.50
71205;BMP180;58935;54.498;18.544;2023-06-10T00:43:33;101079.20;;;15.50
71205;BMP180;58935;54.498;18.544;2023-06-10T00:45:59;101078.00;;;15.50
71205;BMP180;58935;54.498;18.544;2023-06-10T00:48:25;101083.00;;;15.50
71205;BMP180;58935;54.498;18.544;2023-06-10T00:50:52;101077.20;;;15.44
71205;BMP180;58935;54.498;18.544;2023-06-10T00:53:18;101080.20;;;15.40
71205;BMP180;58935;54.498;18.544;2023-06-10T00:55:44;101086.20;;;15.40
71205;BMP180;58935;54.498;18.544;2023-06-10T00:58:10;101084.00;;;15.40
71205;BMP180;58935;54.498;18.544;2023-06-10T01:00:39;101084.40;;;15.38
71205;BMP180;58935;54.498;18.544;2023-06-10T01:03:04;101087.20;;;15.30
71205;BMP180;58935;54.498;18.544;2023-06-10T01:05:34;101082.40;;;15.30
71205;BMP180;58935;54.498;18.544;2023-06-10T01:08:22;101083.40;;;15.30
71205;BMP180;58935;54.498;18.544;2023-06-10T01:10:55;101088.80;;;15.30
71205;BMP180;58935;54.498;18.544;2023-06-10T01:13:25;101088.00;;;15.30
71205;BMP180;58935;54.498;18.544;2023-06-10T01:15:55;101086.40;;;15.20
71205;BMP180;58935;54.498;18.544;2023-06-10T01:18:29;101089.60;;;15.20
71205;BMP180;58935;54.498;18.544;2023-06-10T01:20:56;101088.80;;;15.20
71205;BMP180;58935;54.498;18.544;2023-06-10T01:23:22;101088.40;;;15.18
71205;BMP180;58935;54.498;18.544;2023-06-10T01:26:01;101097.60;;;15.10
71205;BMP180;58935;54.498;18.544;2023-06-10T01:28:54;101093.80;;;15.10
71205;BMP180;58935;54.498;18.544;2023-06-10T01:34:07;101103.20;;;15.10
71205;BMP180;58935;54.498;18.544;2023-06-10T01:36:36;101104.60;;;15.00
71205;BMP180;58935;54.498;18.544;2023-06-10T01:39:04;101102.40;;;15.00
71205;BMP180;58935;54.498;18.544;2023-06-10T01:41:32;101095.60;;;15.00
71205;BMP180;58935;54.498;18.544;2023-06-10T01:43:58;101102.40;;;15.00
71205;BMP180;58935;54.498;18.544;2023-06-10T01:46:23;101100.00;;;15.00
71205;BMP180;58935;54.498;18.544;2023-06-10T01:48:49;101103.00;;;14.96
71205;BMP180;58935;54.498;18.544;2023-06-10T01:51:17;101109.20;;;14.90
71205;BMP180;58935;54.498;18.544;2023-06-10T01:53:43;101108.40;;;14.90
71205;BMP180;58935;54.498;18.544;2023-06-10T01:56:08;101116.20;;;14.90
71205;BMP180;58935;54.498;18.544;2023-06-10T01:58:42;101118.20;;;14.90
71205;BMP180;58935;54.498;18.544;2023-06-10T02:01:08;101124.20;;;14.90
71205;BMP180;58935;54.498;18.544;2023-06-10T02:03:33;101123.60;;;14.90
71205;BMP180;58935;54.498;18.544;2023-06-10T02:05:59;101125.20;;;14.90
71205;BMP180;58935;54.498;18.544;2023-06-10T02:08:24;101126.40;;;14.80
71205;BMP180;58935;54.498;18.544;2023-06-10T02:10:50;101124.00;;;14.80
71205;BMP180;58935;54.498;18.544;2023-06-10T02:13:17;101129.40;;;14.80
71205;BMP180;58935;54.498;18.544;2023-06-10T02:15:43;101130.60;;;14.80
71205;BMP180;58935;54.498;18.544;2023-06-10T02:18:08;101136.20;;;14.80
71205;BMP180;58935;54.498;18.544;2023-06-10T02:20:35;101134.80;;;14.80
71205;BMP180;58935;54.498;18.544;2023-06-10T02:23:01;101138.20;;;14.80
71205;BMP180;58935;54.498;18.544;2023-06-10T02:25:26;101136.80;;;14.78
71205;BMP180;58935;54.498;18.544;2023-06-10T02:27:52;101140.00;;;14.74
71205;BMP180;58935;54.498;18.544;2023-06-10T02:30:17;101146.80;;;14.76
71205;BMP180;58935;54.498;18.544;2023-06-10T02:32:42;101138.60;;;14.72
71205;BMP180;58935;54.498;18.544;2023-06-10T02:35:12;101144.40;;;14.74
71205;BMP180;58935;54.498;18.544;2023-06-10T02:37:38;101142.60;;;14.70
71205;BMP180;58935;54.498;18.544;2023-06-10T02:40:04;101143.00;;;14.70
71205;BMP180;58935;54.498;18.544;2023-06-10T02:42:30;101149.40;;;14.70
71205;BMP180;58935;54.498;18.544;2023-06-10T02:44:55;101139.60;;;14.70
71205;BMP180;58935;54.498;18.544;2023-06-10T02:47:21;101139.80;;;14.70
71205;BMP180;58935;54.498;18.544;2023-06-10T02:49:46;101140.80;;;14.70
71205;BMP180;58935;54.498;18.544;2023-06-10T02:52:11;101139.20;;;14.70
71205;BMP180;58935;54.498;18.544;2023-06-10T02:54:37;101141.60;;;14.74
71205;BMP180;58935;54.498;18.544;2023-06-10T02:57:03;101141.60;;;14.78
71205;BMP180;58935;54.498;18.544;2023-06-10T02:59:29;101144.20;;;14.80
71205;BMP180;58935;54.498;18.544;2023-06-10T03:01:54;101143.20;;;14.80
71205;BMP180;58935;54.498;18.544;2023-06-10T03:04:22;101146.60;;;14.80
71205;BMP180;58935;54.498;18.544;2023-06-10T03:06:49;101153.60;;;14.82
71205;BMP180;58935;54.498;18.544;2023-06-10T03:09:14;101149.80;;;14.90
71205;BMP180;58935;54.498;18.544;2023-06-10T03:11:40;101150.60;;;15.00
71205;BMP180;58935;54.498;18.544;2023-06-10T03:14:05;101155.00;;;15.20
71205;BMP180;58935;54.498;18.544;2023-06-10T03:16:31;101154.00;;;15.72
71205;BMP180;58935;54.498;18.544;2023-06-10T03:18:57;101156.00;;;16.16
71205;BMP180;58935;54.498;18.544;2023-06-10T03:21:22;101160.00;;;16.20
71205;BMP180;58935;54.498;18.544;2023-06-10T03:23:48;101158.40;;;16.20
71205;BMP180;58935;54.498;18.544;2023-06-10T03:26:13;101151.80;;;16.12
71205;BMP180;58935;54.498;18.544;2023-06-10T03:28:41;101151.20;;;16.20
71205;BMP180;58935;54.498;18.544;2023-06-10T03:31:07;101158.00;;;16.20
71205;BMP180;58935;54.498;18.544;2023-06-10T03:33:32;101158.60;;;16.20
71205;BMP180;58935;54.498;18.544;2023-06-10T03:35:58;101159.20;;;16.10
71205;BMP180;58935;54.498;18.544;2023-06-10T03:38:24;101158.80;;;16.10
71205;BMP180;58935;54.498;18.544;2023-06-10T03:40:50;101158.40;;;16.10
71205;BMP180;58935;54.498;18.544;2023-06-10T03:43:15;101158.80;;;16.02
71205;BMP180;58935;54.498;18.544;2023-06-10T03:45:41;101161.40;;;16.00
71205;BMP180;58935;54.498;18.544;2023-06-10T03:48:07;101161.00;;;16.00
71205;BMP180;58935;54.498;18.544;2023-06-10T03:50:34;101166.40;;;16.00
71205;BMP180;58935;54.498;18.544;2023-06-10T03:53:02;101167.60;;;15.90
71205;BMP180;58935;54.498;18.544;2023-06-10T03:55:27;101164.60;;;15.84
71205;BMP180;58935;54.498;18.544;2023-06-10T03:57:53;101166.00;;;15.80
71205;BMP180;58935;54.498;18.544;2023-06-10T04:00:19;101168.20;;;15.80
71205;BMP180;58935;54.498;18.544;2023-06-10T04:02:46;101167.40;;;15.80
71205;BMP180;58935;54.498;18.544;2023-06-10T04:05:13;101169.60;;;15.80
71205;BMP180;58935;54.498;18.544;2023-06-10T04:07:39;101174.80;;;15.80
71205;BMP180;58935;54.498;18.544;2023-06-10T04:10:08;101170.40;;;15.80
71205;BMP180;58935;54.498;18.544;2023-06-10T04:12:35;101168.20;;;15.78
71205;BMP180;58935;54.498;18.544;2023-06-10T04:15:02;101171.00;;;15.80
71205;BMP180;58935;54.498;18.544;2023-06-10T04:17:28;101177.40;;;15.80
71205;BMP180;58935;54.498;18.544;2023-06-10T04:19:54;101176.40;;;15.80
71205;BMP180;58935;54.498;18.544;2023-06-10T04:22:21;101178.80;;;15.80
71205;BMP180;58935;54.498;18.544;2023-06-10T04:24:48;101171.00;;;15.80
71205;BMP180;58935;54.498;18.544;2023-06-10T04:27:14;101174.60;;;15.90
71205;BMP180;58935;54.498;18.544;2023-06-10T04:29:39;101177.40;;;15.90
71205;BMP180;58935;54.498;18.544;2023-06-10T04:32:06;101178.80;;;15.94
71205;BMP180;58935;54.498;18.544;2023-06-10T04:34:34;101182.20;;;16.00
71205;BMP180;58935;54.498;18.544;2023-06-10T04:37:00;101183.80;;;16.00
71205;BMP180;58935;54.498;18.544;2023-06-10T04:39:25;101190.60;;;16.00
71205;BMP180;58935;54.498;18.544;2023-06-10T04:41:51;101199.80;;;16.00
71205;BMP180;58935;54.498;18.544;2023-06-10T04:44:19;101202.20;;;16.00
71205;BMP180;58935;54.498;18.544;2023-06-10T04:46:45;101202.00;;;16.00
71205;BMP180;58935;54.498;18.544;2023-06-10T04:49:13;101198.60;;;16.04
71205;BMP180;58935;54.498;18.544;2023-06-10T04:51:41;101200.80;;;16.00
71205;BMP180;58935;54.498;18.544;2023-06-10T04:54:07;101203.40;;;16.06
71205;BMP180;58935;54.498;18.544;2023-06-10T04:56:35;101205.40;;;16.10
71205;BMP180;58935;54.498;18.544;2023-06-10T04:59:00;101202.40;;;16.10
71205;BMP180;58935;54.498;18.544;2023-06-10T05:01:34;101210.00;;;16.10
71205;BMP180;58935;54.498;18.544;2023-06-10T05:04:03;101211.80;;;16.10
71205;BMP180;58935;54.498;18.544;2023-06-10T05:06:31;101213.60;;;16.18
71205;BMP180;58935;54.498;18.544;2023-06-10T05:08:57;101214.80;;;16.20
71205;BMP180;58935;54.498;18.544;2023-06-10T05:11:22;101225.00;;;16.22
71205;BMP180;58935;54.498;18.544;2023-06-10T05:13:48;101224.80;;;16.20
71205;BMP180;58935;54.498;18.544;2023-06-10T05:16:14;101226.60;;;16.28
71205;BMP180;58935;54.498;18.544;2023-06-10T05:18:41;101231.80;;;16.30
71205;BMP180;58935;54.498;18.544;2023-06-10T05:21:06;101235.00;;;16.30
71205;BMP180;58935;54.498;18.544;2023-06-10T05:23:32;101235.40;;;16.30
71205;BMP180;58935;54.498;18.544;2023-06-10T05:25:58;101240.00;;;16.30
71205;BMP180;58935;54.498;18.544;2023-06-10T05:28:25;101240.60;;;16.32
71205;BMP180;58935;54.498;18.544;2023-06-10T05:30:51;101248.20;;;16.40
71205;BMP180;58935;54.498;18.544;2023-06-10T05:33:19;101247.00;;;16.40
71205;BMP180;58935;54.498;18.544;2023-06-10T05:35:45;101249.60;;;16.30
71205;BMP180;58935;54.498;18.544;2023-06-10T05:38:10;101258.20;;;16.30
71205;BMP180;58935;54.498;18.544;2023-06-10T05:40:36;101257.60;;;16.40
71205;BMP180;58935;54.498;18.544;2023-06-10T05:43:01;101257.80;;;16.40
71205;BMP180;58935;54.498;18.544;2023-06-10T05:45:27;101260.60;;;16.50
71205;BMP180;58935;54.498;18.544;2023-06-10T05:47:53;101263.60;;;16.50
71205;BMP180;58935;54.498;18.544;2023-06-10T05:50:18;101261.00;;;16.40
71205;BMP180;58935;54.498;18.544;2023-06-10T05:52:44;101267.40;;;16.44
71205;BMP180;58935;54.498;18.544;2023-06-10T05:55:10;101269.20;;;16.42
71205;BMP180;58935;54.498;18.544;2023-06-10T05:57:35;101267.20;;;16.50
71205;BMP180;58935;54.498;18.544;2023-06-10T06:00:01;101269.80;;;16.50
71205;BMP180;58935;54.498;18.544;2023-06-10T06:02:29;101266.80;;;16.40
71205;BMP180;58935;54.498;18.544;2023-06-10T06:04:54;101269.40;;;16.40
71205;BMP180;58935;54.498;18.544;2023-06-10T06:07:20;101269.80;;;16.40
71205;BMP180;58935;54.498;18.544;2023-06-10T06:09:47;101275.40;;;16.50
71205;BMP180;58935;54.498;18.544;2023-06-10T06:12:14;101276.00;;;16.50
71205;BMP180;58935;54.498;18.544;2023-06-10T06:14:40;101277.00;;;16.50
71205;BMP180;58935;54.498;18.544;2023-06-10T06:17:06;101276.60;;;16.50
71205;BMP180;58935;54.498;18.544;2023-06-10T06:19:32;101278.40;;;16.50
71205;BMP180;58935;54.498;18.544;2023-06-10T06:21:57;101275.60;;;16.46
71205;BMP180;58935;54.498;18.544;2023-06-10T06:24:23;101278.20;;;16.42
71205;BMP180;58935;54.498;18.544;2023-06-10T06:26:49;101280.20;;;16.44
71205;BMP180;58935;54.498;18.544;2023-06-10T06:29:14;101278.40;;;16.40
71205;BMP180;58935;54.498;18.544;2023-06-10T06:31:40;101281.80;;;16.40
71205;BMP180;58935;54.498;18.544;2023-06-10T06:34:06;101287.40;;;16.40
71205;BMP180;58935;54.498;18.544;2023-06-10T06:36:31;101293.00;;;16.44
71205;BMP180;58935;54.498;18.544;2023-06-10T06:38:56;101294.80;;;16.50
71205;BMP180;58935;54.498;18.544;2023-06-10T06:41:26;101299.80;;;16.50
71205;BMP180;58935;54.498;18.544;2023-06-10T06:43:55;101301.00;;;16.50
71205;BMP180;58935;54.498;18.544;2023-06-10T06:46:20;101300.20;;;16.60
71205;BMP180;58935;54.498;18.544;2023-06-10T06:48:48;101302.20;;;16.50
71205;BMP180;58935;54.498;18.544;2023-06-10T06:51:14;101307.40;;;16.50
71205;BMP180;58935;54.498;18.544;2023-06-10T06:53:40;101311.80;;;16.50
71205;BMP180;58935;54.498;18.544;2023-06-10T06:56:11;101318.00;;;16.50
71205;BMP180;58935;54.498;18.544;2023-06-10T06:58:37;101322.20;;;16.46
71205;BMP180;58935;54.498;18.544;2023-06-10T07:01:03;101323.20;;;16.40
71205;BMP180;58935;54.498;18.544;2023-06-10T07:03:28;101330.20;;;16.40
71205;BMP180;58935;54.498;18.544;2023-06-10T07:05:53;101327.20;;;16.50
71205;BMP180;58935;54.498;18.544;2023-06-10T07:08:19;101325.40;;;16.54
71205;BMP180;58935;54.498;18.544;2023-06-10T07:10:44;101323.60;;;16.60
71205;BMP180;58935;54.498;18.544;2023-06-10T07:13:10;101327.80;;;16.62
71205;BMP180;58935;54.498;18.544;2023-06-10T07:15:38;101324.20;;;16.70
71205;BMP180;58935;54.498;18.544;2023-06-10T07:18:04;101323.40;;;16.70
71205;BMP180;58935;54.498;18.544;2023-06-10T07:20:29;101327.80;;;16.70
71205;BMP180;58935;54.498;18.544;2023-06-10T07:22:54;101329.00;;;16.70
71205;BMP180;58935;54.498;18.544;2023-06-10T07:25:23;101331.00;;;16.70
71205;BMP180;58935;54.498;18.544;2023-06-10T07:27:49;101332.00;;;16.70
71205;BMP180;58935;54.498;18.544;2023-06-10T07:30:15;101334.00;;;16.70
71205;BMP180;58935;54.498;18.544;2023-06-10T07:32:41;101332.00;;;16.70
71205;BMP180;58935;54.498;18.544;2023-06-10T07:35:09;101336.40;;;16.80
71205;BMP180;58935;54.498;18.544;2023-06-10T07:37:37;101339.20;;;16.84
71205;BMP180;58935;54.498;18.544;2023-06-10T07:40:03;101338.80;;;16.90
71205;BMP180;58935;54.498;18.544;2023-06-10T07:42:29;101335.60;;;16.88
71205;BMP180;58935;54.498;18.544;2023-06-10T07:44:54;101338.80;;;16.80
71205;BMP180;58935;54.498;18.544;2023-06-10T07:47:23;101336.60;;;16.80
71205;BMP180;58935;54.498;18.544;2023-06-10T07:49:48;101338.00;;;16.90
71205;BMP180;58935;54.498;18.544;2023-06-10T07:52:13;101341.60;;;16.90
71205;BMP180;58935;54.498;18.544;2023-06-10T07:54:39;101343.00;;;16.90
71205;BMP180;58935;54.498;18.544;2023-06-10T07:57:07;101340.60;;;16.90
71205;BMP180;58935;54.498;18.544;2023-06-10T07:59:33;101340.80;;;16.90
71205;BMP180;58935;54.498;18.544;2023-06-10T08:01:59;101340.60;;;16.90
71205;BMP180;58935;54.498;18.544;2023-06-10T08:04:24;101338.40;;;16.90
71205;BMP180;58935;54.498;18.544;2023-06-10T08:06:50;101334.40;;;16.90
71205;BMP180;58935;54.498;18.544;2023-06-10T08:09:16;101332.60;;;16.90
71205;BMP180;58935;54.498;18.544;2023-06-10T08:11:42;101336.80;;;16.90
71205;BMP180;58935;54.498;18.544;2023-06-10T08:14:07;101337.00;;;16.96
71205;BMP180;58935;54.498;18.544;2023-06-10T08:16:32;101335.80;;;17.00
71205;BMP180;58935;54.498;18.544;2023-06-10T08:18:58;101342.40;;;17.00
71205;BMP180;58935;54.498;18.544;2023-06-10T08:21:23;101340.80;;;16.90
71205;BMP180;58935;54.498;18.544;2023-06-10T08:23:53;101344.40;;;16.90
71205;BMP180;58935;54.498;18.544;2023-06-10T08:26:19;101347.80;;;16.90
71205;BMP180;58935;54.498;18.544;2023-06-10T08:28:45;101353.80;;;16.80
71205;BMP180;58935;54.498;18.544;2023-06-10T08:31:10;101354.20;;;16.80
71205;BMP180;58935;54.498;18.544;2023-06-10T08:33:36;101350.20;;;16.76
71205;BMP180;58935;54.498;18.544;2023-06-10T08:36:02;101360.80;;;16.70
71205;BMP180;58935;54.498;18.544;2023-06-10T08:38:27;101357.40;;;16.70
71205;BMP180;58935;54.498;18.544;2023-06-10T08:40:57;101363.60;;;16.70
71205;BMP180;58935;54.498;18.544;2023-06-10T08:43:34;101365.40;;;16.70
71205;BMP180;58935;54.498;18.544;2023-06-10T08:46:02;101364.40;;;16.70
71205;BMP180;58935;54.498;18.544;2023-06-10T08:48:32;101361.20;;;16.70
71205;BMP180;58935;54.498;18.544;2023-06-10T08:51:04;101366.20;;;16.74
71205;BMP180;58935;54.498;18.544;2023-06-10T08:53:33;101363.40;;;16.80
71205;BMP180;58935;54.498;18.544;2023-06-10T08:56:04;101373.00;;;16.80
71205;BMP180;58935;54.498;18.544;2023-06-10T08:58:33;101368.60;;;16.76
71205;BMP180;58935;54.498;18.544;2023-06-10T09:01:01;101367.40;;;16.78
71205;BMP180;58935;54.498;18.544;2023-06-10T09:03:28;101364.80;;;16.70
71205;BMP180;58935;54.498;18.544;2023-06-10T09:05:55;101368.60;;;16.70
71205;BMP180;58935;54.498;18.544;2023-06-10T09:08:22;101367.80;;;16.70
71205;BMP180;58935;54.498;18.544;2023-06-10T09:10:48;101369.80;;;16.70
71205;BMP180;58935;54.498;18.544;2023-06-10T09:13:13;101369.80;;;16.70
71205;BMP180;58935;54.498;18.544;2023-06-10T09:15:41;101372.80;;;16.70
71205;BMP180;58935;54.498;18.544;2023-06-10T09:18:09;101372.00;;;16.80
71205;BMP180;58935;54.498;18.544;2023-06-10T09:20:35;101370.80;;;16.90
71205;BMP180;58935;54.498;18.544;2023-06-10T09:23:01;101369.60;;;17.00
71205;BMP180;58935;54.498;18.544;2023-06-10T09:25:34;101373.00;;;17.10
71205;BMP180;58935;54.498;18.544;2023-06-10T09:28:00;101373.80;;;17.20
71205;BMP180;58935;54.498;18.544;2023-06-10T09:30:30;101372.00;;;17.20
71205;BMP180;58935;54.498;18.544;2023-06-10T09:33:00;101371.00;;;17.20
71205;BMP180;58935;54.498;18.544;2023-06-10T09:35:30;101377.80;;;17.10
71205;BMP180;58935;54.498;18.544;2023-06-10T09:37:58;101380.60;;;17.08
71205;BMP180;58935;54.498;18.544;2023-06-10T09:40:27;101378.20;;;17.00
71205;BMP180;58935;54.498;18.544;2023-06-10T09:42:56;101382.00;;;17.00
71205;BMP180;58935;54.498;18.544;2023-06-10T09:45:23;101383.60;;;16.90
71205;BMP180;58935;54.498;18.544;2023-06-10T09:47:52;101382.80;;;16.80
71205;BMP180;58935;54.498;18.544;2023-06-10T09:50:19;101380.20;;;16.80
71205;BMP180;58935;54.498;18.544;2023-06-10T09:52:46;101381.60;;;16.80
71205;BMP180;58935;54.498;18.544;2023-06-10T09:55:13;101380.80;;;16.88
71205;BMP180;58935;54.498;18.544;2023-06-10T09:57:39;101383.80;;;16.90
71205;BMP180;58935;54.498;18.544;2023-06-10T10:00:09;101388.40;;;16.80
71205;BMP180;58935;54.498;18.544;2023-06-10T10:02:44;101386.20;;;16.90
71205;BMP180;58935;54.498;18.544;2023-06-10T10:05:09;101385.40;;;16.90
71205;BMP180;58935;54.498;18.544;2023-06-10T10:07:35;101385.40;;;16.90
71205;BMP180;58935;54.498;18.544;2023-06-10T10:10:01;101387.60;;;16.90
71205;BMP180;58935;54.498;18.544;2023-06-10T10:12:27;101384.40;;;17.00
71205;BMP180;58935;54.498;18.544;2023-06-10T10:14:56;101385.40;;;16.92
71205;BMP180;58935;54.498;18.544;2023-06-10T10:17:26;101389.60;;;17.00
71205;BMP180;58935;54.498;18.544;2023-06-10T10:19:58;101381.20;;;17.02
71205;BMP180;58935;54.498;18.544;2023-06-10T10:22:31;101382.00;;;17.10
71205;BMP180;58935;54.498;18.544;2023-06-10T10:25:02;101382.60;;;17.10
71205;BMP180;58935;54.498;18.544;2023-06-10T10:27:35;101377.60;;;17.06
71205;BMP180;58935;54.498;18.544;2023-06-10T10:30:03;101379.80;;;17.00
71205;BMP180;58935;54.498;18.544;2023-06-10T10:32:42;101378.60;;;17.02
71205;BMP180;58935;54.498;18.544;2023-06-10T10:35:17;101378.60;;;17.00
71205;BMP180;58935;54.498;18.544;2023-06-10T10:37:43;101377.60;;;17.00
71205;BMP180;58935;54.498;18.544;2023-06-10T10:40:10;101375.00;;;17.00
71205;BMP180;58935;54.498;18.544;2023-06-10T10:42:38;101374.80;;;17.00
71205;BMP180;58935;54.498;18.544;2023-06-10T10:45:07;101375.80;;;17.00
71205;BMP180;58935;54.498;18.544;2023-06-10T10:47:36;101373.20;;;17.00
71205;BMP180;58935;54.498;18.544;2023-06-10T10:50:14;101368.40;;;17.00
71205;BMP180;58935;54.498;18.544;2023-06-10T10:52:56;101372.00;;;17.00
71205;BMP180;58935;54.498;18.544;2023-06-10T10:55:25;101373.60;;;17.10
71205;BMP180;58935;54.498;18.544;2023-06-10T10:57:57;101375.80;;;17.14
71205;BMP180;58935;54.498;18.544;2023-06-10T11:00:31;101380.20;;;17.20
71205;BMP180;58935;54.498;18.544;2023-06-10T11:03:06;101381.00;;;17.26
71205;BMP180;58935;54.498;18.544;2023-06-10T11:05:38;101383.40;;;17.30
71205;BMP180;58935;54.498;18.544;2023-06-10T11:08:04;101377.00;;;17.40
71205;BMP180;58935;54.498;18.544;2023-06-10T11:10:36;101375.80;;;17.40
71205;BMP180;58935;54.498;18.544;2023-06-10T11:13:09;101383.40;;;17.50
71205;BMP180;58935;54.498;18.544;2023-06-10T11:15:44;101381.80;;;17.50
71205;BMP180;58935;54.498;18.544;2023-06-10T11:18:21;101383.20;;;17.60
71205;BMP180;58935;54.498;18.544;2023-06-10T11:20:55;101396.00;;;17.60
71205;BMP180;58935;54.498;18.544;2023-06-10T11:23:38;101394.40;;;17.60
71205;BMP180;58935;54.498;18.544;2023-06-10T11:26:16;101394.20;;;17.68
71205;BMP180;58935;54.498;18.544;2023-06-10T11:29:03;101396.20;;;17.70
71205;BMP180;58935;54.498;18.544;2023-06-10T11:31:41;101393.00;;;17.66
71205;BMP180;58935;54.498;18.544;2023-06-10T11:34:08;101393.40;;;17.70
71205;BMP180;58935;54.498;18.544;2023-06-10T11:36:40;101388.20;;;17.78
71205;BMP180;58935;54.498;18.544;2023-06-10T11:39:07;101388.60;;;17.70
71205;BMP180;58935;54.498;18.544;2023-06-10T11:41:35;101390.00;;;17.70
71205;BMP180;58935;54.498;18.544;2023-06-10T11:44:08;101391.20;;;17.70
71205;BMP180;58935;54.498;18.544;2023-06-10T11:46:35;101389.00;;;17.80
71205;BMP180;58935;54.498;18.544;2023-06-10T11:49:02;101392.40;;;17.80
71205;BMP180;58935;54.498;18.544;2023-06-10T11:51:33;101392.00;;;17.80
71205;BMP180;58935;54.498;18.544;2023-06-10T11:53:58;101396.20;;;17.80
71205;BMP180;58935;54.498;18.544;2023-06-10T11:56:27;101392.00;;;17.90
71205;BMP180;58935;54.498;18.544;2023-06-10T11:58:57;101393.40;;;17.82
71205;BMP180;58935;54.498;18.544;2023-06-10T12:01:26;101389.00;;;17.90
71205;BMP180;58935;54.498;18.544;2023-06-10T12:03:57;101393.60;;;17.90
71205;BMP180;58935;54.498;18.544;2023-06-10T12:06:26;101390.00;;;17.90
71205;BMP180;58935;54.498;18.544;2023-06-10T12:08:54;101394.80;;;18.00
71205;BMP180;58935;54.498;18.544;2023-06-10T12:11:20;101390.80;;;18.20
71205;BMP180;58935;54.498;18.544;2023-06-10T12:13:48;101392.40;;;18.30
71205;BMP180;58935;54.498;18.544;2023-06-10T12:16:15;101390.60;;;18.30
71205;BMP180;58935;54.498;18.544;2023-06-10T12:18:44;101396.00;;;18.40
71205;BMP180;58935;54.498;18.544;2023-06-10T12:21:17;101395.20;;;18.40
71205;BMP180;58935;54.498;18.544;2023-06-10T12:24:09;101394.60;;;18.40
71205;BMP180;58935;54.498;18.544;2023-06-10T12:26:37;101396.00;;;18.40
71205;BMP180;58935;54.498;18.544;2023-06-10T12:29:28;101399.60;;;18.42
71205;BMP180;58935;54.498;18.544;2023-06-10T12:32:01;101401.00;;;18.40
71205;BMP180;58935;54.498;18.544;2023-06-10T12:34:34;101396.80;;;18.30
71205;BMP180;58935;54.498;18.544;2023-06-10T12:37:02;101394.40;;;18.30
71205;BMP180;58935;54.498;18.544;2023-06-10T12:39:30;101400.40;;;18.38
71205;BMP180;58935;54.498;18.544;2023-06-10T12:41:57;101394.20;;;18.30
71205;BMP180;58935;54.498;18.544;2023-06-10T12:44:32;101396.20;;;18.32
71205;BMP180;58935;54.498;18.544;2023-06-10T12:47:01;101397.60;;;18.40
71205;BMP180;58935;54.498;18.544;2023-06-10T12:49:27;101392.40;;;18.40
71205;BMP180;58935;54.498;18.544;2023-06-10T12:51:53;101396.20;;;18.50
71205;BMP180;58935;54.498;18.544;2023-06-10T12:54:21;101396.20;;;18.50
71205;BMP180;58935;54.498;18.544;2023-06-10T12:56:47;101392.60;;;18.60
71205;BMP180;58935;54.498;18.544;2023-06-10T12:59:13;101396.00;;;18.50
71205;BMP180;58935;54.498;18.544;2023-06-10T13:01:38;101392.40;;;18.46
71205;BMP180;58935;54.498;18.544;2023-06-10T13:04:05;101391.20;;;18.30
71205;BMP180;58935;54.498;18.544;2023-06-10T13:06:33;101390.60;;;18.22
71205;BMP180;58935;54.498;18.544;2023-06-10T13:09:03;101391.80;;;18.20
71205;BMP180;58935;54.498;18.544;2023-06-10T13:11:28;101390.00;;;18.10
71205;BMP180;58935;54.498;18.544;2023-06-10T13:13:54;101380.20;;;18.00
71205;BMP180;58935;54.498;18.544;2023-06-10T13:16:19;101381.60;;;18.00
71205;BMP180;58935;54.498;18.544;2023-06-10T13:18:45;101377.00;;;18.00
71205;BMP180;58935;54.498;18.544;2023-06-10T13:21:11;101381.00;;;18.04
71205;BMP180;58935;54.498;18.544;2023-06-10T13:23:36;101389.80;;;18.04
71205;BMP180;58935;54.498;18.544;2023-06-10T13:26:02;101384.40;;;18.02
71205;BMP180;58935;54.498;18.544;2023-06-10T13:28:28;101385.60;;;18.10
71205;BMP180;58935;54.498;18.544;2023-06-10T13:30:53;101382.80;;;18.10
71205;BMP180;58935;54.498;18.544;2023-06-10T13:33:19;101382.40;;;18.06
71205;BMP180;58935;54.498;18.544;2023-06-10T13:35:44;101382.20;;;18.04
71205;BMP180;58935;54.498;18.544;2023-06-10T13:38:10;101380.60;;;18.10
71205;BMP180;58935;54.498;18.544;2023-06-10T13:40:57;101385.40;;;18.10
71205;BMP180;58935;54.498;18.544;2023-06-10T13:43:23;101385.40;;;18.10
71205;BMP180;58935;54.498;18.544;2023-06-10T13:45:48;101382.00;;;18.10
71205;BMP180;58935;54.498;18.544;2023-06-10T13:48:14;101387.00;;;18.10
71205;BMP180;58935;54.498;18.544;2023-06-10T13:50:39;101382.40;;;18.10